Home   Weather   USA   Alamogordo   Past weeks
Flag for USA

Past Weather in Alamogordo, New Mexico, USA — Yesterday and Last 2 Weeks

Currently: 30 °F. Clear. (Weather station: Alamogordo-White, USA). See more current weather

Past Weather in Alamogordo — Graph

°F

Alamogordo Temperature Yesterday

Maximum temperature yesterday: 63 °F (at 11:15 am)
Minimum temperature yesterday: 34 °F (at 4:35 am)
Average temperature yesterday: 49 °F

High & Low Weather Summary for the Past Weeks

 TemperatureHumidityPressure
High72 °F (Dec 2, 2:15 pm)93% (Nov 25, 7:15 am)30.50 "Hg (Nov 25, 7:15 am)
Low27 °F (Dec 8, 5:35 am)16% (Dec 5, 2:15 pm)29.94 "Hg (Nov 24, 1:35 am)
Average49 °F44%30.18 "Hg
* Reported Nov 23 5:15 am — Dec 8 5:55 am, Alamogordo. Weather by CustomWeather, © 2021

Note: Actual official high and low records may vary slightly from our data, if they occured in-between our weather recording intervals... More about our weather records

Alamogordo Weather History for the Previous 24 Hours

Scroll right to see more
 ConditionsComfort  
Time TempWeatherWind HumidityBarometerVisibility
5:55 am
Wed, Dec 8
28 °FClear.5 mph64%30.12 "Hg10 mi
5:35 am27 °FClear.7 mph69%30.12 "Hg10 mi
4:55 am36 °FClear.No wind52%30.09 "Hg10 mi
4:35 am36 °FClear.5 mph52%30.09 "Hg10 mi
4:15 am32 °FClear.8 mph55%30.09 "Hg10 mi
3:55 am32 °FClear.5 mph55%30.11 "Hg10 mi
3:35 am34 °FClear.6 mph56%30.12 "Hg10 mi
3:15 am32 °FClear.6 mph55%30.11 "Hg10 mi
2:55 am34 °FClear.No wind51%30.11 "Hg10 mi
2:35 am32 °FClear.3 mph55%30.09 "Hg10 mi
2:15 am32 °FClear.3 mph55%30.09 "Hg10 mi
1:55 am36 °FClear.6 mph52%30.09 "Hg10 mi
1:35 am34 °FClear.6 mph51%30.09 "Hg10 mi
1:15 am36 °FClear.5 mph52%30.08 "Hg10 mi
12:35 am34 °FClear.No wind51%30.08 "Hg10 mi
12:15 am36 °FClear.No wind48%30.08 "Hg10 mi
11:55 pm
Tue, Dec 7
34 °FClear.6 mph51%30.08 "Hg10 mi
11:35 pm34 °FClear.6 mph51%30.09 "Hg10 mi
11:15 pm36 °FClear.6 mph52%30.08 "Hg10 mi
10:55 pm36 °FClear.5 mph48%30.08 "Hg10 mi
10:35 pm39 °FClear.7 mph42%30.07 "Hg10 mi
10:15 pm45 °FPassing clouds.7 mph34%30.07 "Hg10 mi
9:55 pm43 °FOvercast.7 mph36%30.07 "Hg10 mi
9:35 pm43 °FOvercast.8 mph36%30.07 "Hg10 mi
9:15 pm41 °FOvercast.6 mph39%30.07 "Hg10 mi
8:55 pm41 °FOvercast.No wind39%30.07 "Hg10 mi
8:35 pm41 °FPassing clouds.5 mph39%30.07 "Hg10 mi
8:15 pm39 °FClear.6 mph45%30.06 "Hg10 mi
7:55 pm45 °FClear.9 mph34%30.06 "Hg10 mi
7:35 pm46 °FClear.8 mph32%30.05 "Hg10 mi
7:15 pm48 °FClear.8 mph29%30.05 "Hg10 mi
6:55 pm50 °FClear.9 mph30%30.04 "Hg10 mi
6:35 pm50 °FClear.8 mph30%30.04 "Hg10 mi
6:15 pm50 °FClear.10 mph32%30.04 "Hg10 mi
5:55 pm50 °FClear.10 mph30%30.03 "Hg10 mi
5:35 pm52 °FClear.8 mph28%30.03 "Hg10 mi
5:15 pm55 °FClear.5 mph26%30.02 "Hg10 mi
4:55 pm59 °FSunny.3 mph23%30.01 "Hg10 mi
4:35 pm59 °FSunny.No wind23%30.01 "Hg10 mi
4:15 pm61 °FSunny.5 mph22%30.01 "Hg10 mi
3:55 pm63 °FSunny.3 mph20%30.00 "Hg10 mi
3:35 pm63 °FSunny.5 mph20%30.00 "Hg10 mi
3:15 pm63 °FSunny.6 mph20%29.99 "Hg10 mi
2:55 pm63 °FSunny.7 mph20%29.98 "Hg10 mi
2:35 pm63 °FSunny.5 mph20%29.98 "Hg10 mi
2:15 pm63 °FSunny.6 mph20%29.97 "Hg10 mi
1:35 pm63 °FSunny.5 mph20%29.98 "Hg10 mi
12:55 pm61 °FSunny.5 mph22%30.00 "Hg10 mi
12:35 pm61 °FSunny.No wind22%30.00 "Hg10 mi
12:15 pm61 °FSunny.6 mph23%30.01 "Hg10 mi
11:55 am61 °FSunny.8 mph23%30.02 "Hg10 mi
11:35 am63 °FSunny.9 mph22%30.03 "Hg10 mi
11:15 am63 °FSunny.12 mph22%30.03 "Hg10 mi
10:55 am61 °FSunny.12 mph23%30.04 "Hg10 mi
10:35 am59 °FSunny.12 mph25%30.05 "Hg10 mi
10:15 am59 °FSunny.10 mph25%30.05 "Hg10 mi
9:55 am57 °FSunny.14 mph27%30.06 "Hg10 mi
9:35 am55 °FSunny.13 mph28%30.06 "Hg10 mi
9:15 am54 °FSunny.10 mph30%30.06 "Hg10 mi
8:55 am54 °FSunny.12 mph30%30.05 "Hg10 mi
8:35 am52 °FSunny.12 mph32%30.04 "Hg10 mi
8:15 am46 °FSunny.8 mph40%30.03 "Hg10 mi
7:35 am39 °FSunny.3 mph48%30.03 "Hg10 mi
Weather by CustomWeather, © 2021

See weather overview